sensor_id;sensor_type;location;lat;lon;timestamp;P1;durP1;ratioP1;P2;durP2;ratioP2
36253;SDS011;22291;52.250;21.228;2024-01-07T00:01:16;32.93;;;15.53;;
36253;SDS011;22291;52.250;21.228;2024-01-07T00:03:44;30.23;;;15.45;;
36253;SDS011;22291;52.250;21.228;2024-01-07T00:06:11;31.75;;;15.28;;
36253;SDS011;22291;52.250;21.228;2024-01-07T00:08:37;32.83;;;16.02;;
36253;SDS011;22291;52.250;21.228;2024-01-07T00:11:04;28.60;;;14.93;;
36253;SDS011;22291;52.250;21.228;2024-01-07T00:13:30;30.92;;;16.67;;
36253;SDS011;22291;52.250;21.228;2024-01-07T00:15:57;31.95;;;15.78;;
36253;SDS011;22291;52.250;21.228;2024-01-07T00:18:23;31.70;;;15.72;;
36253;SDS011;22291;52.250;21.228;2024-01-07T00:20:50;34.27;;;16.25;;
36253;SDS011;22291;52.250;21.228;2024-01-07T00:23:16;36.23;;;15.68;;
36253;SDS011;22291;52.250;21.228;2024-01-07T00:25:43;31.95;;;16.80;;
36253;SDS011;22291;52.250;21.228;2024-01-07T00:28:10;36.53;;;16.95;;
36253;SDS011;22291;52.250;21.228;2024-01-07T00:30:37;35.85;;;17.37;;
36253;SDS011;22291;52.250;21.228;2024-01-07T00:33:03;35.98;;;18.30;;
36253;SDS011;22291;52.250;21.228;2024-01-07T00:35:30;37.45;;;17.23;;
36253;SDS011;22291;52.250;21.228;2024-01-07T00:37:56;33.50;;;16.97;;
36253;SDS011;22291;52.250;21.228;2024-01-07T00:40:24;34.03;;;15.35;;
36253;SDS011;22291;52.250;21.228;2024-01-07T00:42:51;31.00;;;15.40;;
36253;SDS011;22291;52.250;21.228;2024-01-07T00:45:17;34.00;;;16.45;;
36253;SDS011;22291;52.250;21.228;2024-01-07T00:47:44;90.70;;;46.48;;
36253;SDS011;22291;52.250;21.228;2024-01-07T00:50:11;135.12;;;66.10;;
36253;SDS011;22291;52.250;21.228;2024-01-07T00:52:37;75.92;;;36.20;;
36253;SDS011;22291;52.250;21.228;2024-01-07T00:55:04;39.63;;;17.87;;
36253;SDS011;22291;52.250;21.228;2024-01-07T00:57:32;33.25;;;16.30;;
36253;SDS011;22291;52.250;21.228;2024-01-07T00:59:59;34.73;;;16.30;;
36253;SDS011;22291;52.250;21.228;2024-01-07T01:02:31;35.45;;;16.85;;
36253;SDS011;22291;52.250;21.228;2024-01-07T01:04:57;33.48;;;16.30;;
36253;SDS011;22291;52.250;21.228;2024-01-07T01:07:24;37.60;;;16.35;;
36253;SDS011;22291;52.250;21.228;2024-01-07T01:09:50;34.35;;;16.02;;
36253;SDS011;22291;52.250;21.228;2024-01-07T01:12:17;30.57;;;16.20;;
36253;SDS011;22291;52.250;21.228;2024-01-07T01:14:43;32.55;;;15.78;;
36253;SDS011;22291;52.250;21.228;2024-01-07T01:17:10;34.78;;;15.95;;
36253;SDS011;22291;52.250;21.228;2024-01-07T01:19:36;37.58;;;17.05;;
36253;SDS011;22291;52.250;21.228;2024-01-07T01:22:03;36.68;;;16.57;;
36253;SDS011;22291;52.250;21.228;2024-01-07T01:24:29;34.27;;;16.90;;
36253;SDS011;22291;52.250;21.228;2024-01-07T01:26:56;35.80;;;15.88;;
36253;SDS011;22291;52.250;21.228;2024-01-07T01:29:22;32.23;;;16.42;;
36253;SDS011;22291;52.250;21.228;2024-01-07T01:31:49;32.30;;;15.38;;
36253;SDS011;22291;52.250;21.228;2024-01-07T01:34:16;28.95;;;14.93;;
36253;SDS011;22291;52.250;21.228;2024-01-07T01:36:42;33.70;;;15.83;;
36253;SDS011;22291;52.250;21.228;2024-01-07T01:39:09;31.30;;;15.08;;
36253;SDS011;22291;52.250;21.228;2024-01-07T01:41:35;28.67;;;14.60;;
36253;SDS011;22291;52.250;21.228;2024-01-07T01:44:02;30.82;;;14.83;;
36253;SDS011;22291;52.250;21.228;2024-01-07T01:46:29;31.37;;;14.58;;
36253;SDS011;22291;52.250;21.228;2024-01-07T01:48:55;33.42;;;15.08;;
36253;SDS011;22291;52.250;21.228;2024-01-07T01:51:22;35.63;;;14.58;;
36253;SDS011;22291;52.250;21.228;2024-01-07T01:53:49;30.92;;;13.30;;
36253;SDS011;22291;52.250;21.228;2024-01-07T01:56:17;26.95;;;13.70;;
36253;SDS011;22291;52.250;21.228;2024-01-07T01:58:46;27.27;;;14.10;;
36253;SDS011;22291;52.250;21.228;2024-01-07T02:01:13;28.92;;;13.93;;
36253;SDS011;22291;52.250;21.228;2024-01-07T02:03:40;32.45;;;14.25;;
36253;SDS011;22291;52.250;21.228;2024-01-07T02:06:06;27.42;;;13.53;;
36253;SDS011;22291;52.250;21.228;2024-01-07T02:08:34;25.80;;;13.08;;
36253;SDS011;22291;52.250;21.228;2024-01-07T02:11:13;25.77;;;12.73;;
36253;SDS011;22291;52.250;21.228;2024-01-07T02:13:40;25.00;;;13.10;;
36253;SDS011;22291;52.250;21.228;2024-01-07T02:16:06;31.82;;;12.85;;
36253;SDS011;22291;52.250;21.228;2024-01-07T02:18:33;23.55;;;12.18;;
36253;SDS011;22291;52.250;21.228;2024-01-07T02:21:00;25.57;;;12.15;;
36253;SDS011;22291;52.250;21.228;2024-01-07T02:23:27;20.72;;;11.65;;
36253;SDS011;22291;52.250;21.228;2024-01-07T02:25:53;21.82;;;11.12;;
36253;SDS011;22291;52.250;21.228;2024-01-07T02:28:20;20.27;;;10.03;;
36253;SDS011;22291;52.250;21.228;2024-01-07T02:30:46;23.10;;;10.72;;
36253;SDS011;22291;52.250;21.228;2024-01-07T02:33:13;19.55;;;10.98;;
36253;SDS011;22291;52.250;21.228;2024-01-07T02:35:39;23.42;;;10.95;;
36253;SDS011;22291;52.250;21.228;2024-01-07T02:38:05;20.57;;;10.70;;
36253;SDS011;22291;52.250;21.228;2024-01-07T02:40:32;20.57;;;10.65;;
36253;SDS011;22291;52.250;21.228;2024-01-07T02:42:59;18.15;;;10.45;;
36253;SDS011;22291;52.250;21.228;2024-01-07T02:45:25;23.85;;;10.63;;
36253;SDS011;22291;52.250;21.228;2024-01-07T02:47:52;18.95;;;10.30;;
36253;SDS011;22291;52.250;21.228;2024-01-07T02:50:18;20.37;;;10.63;;
36253;SDS011;22291;52.250;21.228;2024-01-07T02:52:45;20.50;;;9.93;;
36253;SDS011;22291;52.250;21.228;2024-01-07T02:55:11;19.00;;;10.00;;
36253;SDS011;22291;52.250;21.228;2024-01-07T02:57:38;16.45;;;10.18;;
36253;SDS011;22291;52.250;21.228;2024-01-07T03:00:05;19.57;;;9.23;;
36253;SDS011;22291;52.250;21.228;2024-01-07T03:02:33;18.98;;;9.53;;
36253;SDS011;22291;52.250;21.228;2024-01-07T03:05:00;20.52;;;10.75;;
36253;SDS011;22291;52.250;21.228;2024-01-07T03:07:26;20.52;;;10.28;;
36253;SDS011;22291;52.250;21.228;2024-01-07T03:09:53;18.02;;;10.23;;
36253;SDS011;22291;52.250;21.228;2024-01-07T03:12:19;18.73;;;10.65;;
36253;SDS011;22291;52.250;21.228;2024-01-07T03:14:45;20.92;;;11.30;;
36253;SDS011;22291;52.250;21.228;2024-01-07T03:17:12;22.05;;;10.35;;
36253;SDS011;22291;52.250;21.228;2024-01-07T03:19:40;22.15;;;11.68;;
36253;SDS011;22291;52.250;21.228;2024-01-07T03:22:07;20.45;;;11.18;;
36253;SDS011;22291;52.250;21.228;2024-01-07T03:24:33;20.88;;;11.97;;
36253;SDS011;22291;52.250;21.228;2024-01-07T03:27:00;20.00;;;10.90;;
36253;SDS011;22291;52.250;21.228;2024-01-07T03:29:26;22.22;;;12.65;;
36253;SDS011;22291;52.250;21.228;2024-01-07T03:31:53;25.43;;;12.88;;
36253;SDS011;22291;52.250;21.228;2024-01-07T03:34:19;19.00;;;10.93;;
36253;SDS011;22291;52.250;21.228;2024-01-07T03:36:46;21.37;;;11.25;;
36253;SDS011;22291;52.250;21.228;2024-01-07T03:39:12;20.75;;;11.73;;
36253;SDS011;22291;52.250;21.228;2024-01-07T03:41:39;18.27;;;11.25;;
36253;SDS011;22291;52.250;21.228;2024-01-07T03:44:06;21.35;;;11.78;;
36253;SDS011;22291;52.250;21.228;2024-01-07T03:46:32;23.25;;;11.15;;
36253;SDS011;22291;52.250;21.228;2024-01-07T03:48:58;21.85;;;11.48;;
36253;SDS011;22291;52.250;21.228;2024-01-07T03:51:25;20.65;;;10.98;;
36253;SDS011;22291;52.250;21.228;2024-01-07T03:53:52;19.48;;;10.90;;
36253;SDS011;22291;52.250;21.228;2024-01-07T03:56:18;18.50;;;10.65;;
36253;SDS011;22291;52.250;21.228;2024-01-07T03:58:45;21.15;;;11.33;;
36253;SDS011;22291;52.250;21.228;2024-01-07T04:01:15;17.27;;;10.45;;
36253;SDS011;22291;52.250;21.228;2024-01-07T04:03:43;22.15;;;10.88;;
36253;SDS011;22291;52.250;21.228;2024-01-07T04:06:10;20.65;;;11.73;;
36253;SDS011;22291;52.250;21.228;2024-01-07T04:08:36;20.57;;;11.25;;
36253;SDS011;22291;52.250;21.228;2024-01-07T04:11:03;20.37;;;11.48;;
36253;SDS011;22291;52.250;21.228;2024-01-07T04:13:30;24.02;;;12.43;;
36253;SDS011;22291;52.250;21.228;2024-01-07T04:15:57;19.75;;;11.43;;
36253;SDS011;22291;52.250;21.228;2024-01-07T04:18:23;17.25;;;10.88;;
36253;SDS011;22291;52.250;21.228;2024-01-07T04:20:50;20.52;;;11.45;;
36253;SDS011;22291;52.250;21.228;2024-01-07T04:23:16;20.17;;;12.37;;
36253;SDS011;22291;52.250;21.228;2024-01-07T04:25:43;16.57;;;10.78;;
36253;SDS011;22291;52.250;21.228;2024-01-07T04:28:10;18.25;;;10.60;;
36253;SDS011;22291;52.250;21.228;2024-01-07T04:30:37;19.20;;;11.05;;
36253;SDS011;22291;52.250;21.228;2024-01-07T04:33:04;20.37;;;10.78;;
36253;SDS011;22291;52.250;21.228;2024-01-07T04:35:30;18.70;;;11.12;;
36253;SDS011;22291;52.250;21.228;2024-01-07T04:37:57;17.45;;;10.50;;
36253;SDS011;22291;52.250;21.228;2024-01-07T04:40:24;20.40;;;11.45;;
36253;SDS011;22291;52.250;21.228;2024-01-07T04:42:50;23.45;;;11.38;;
36253;SDS011;22291;52.250;21.228;2024-01-07T04:45:17;17.70;;;10.23;;
36253;SDS011;22291;52.250;21.228;2024-01-07T04:47:43;18.10;;;11.57;;
36253;SDS011;22291;52.250;21.228;2024-01-07T04:50:10;17.57;;;10.18;;
36253;SDS011;22291;52.250;21.228;2024-01-07T04:52:37;17.80;;;10.98;;
36253;SDS011;22291;52.250;21.228;2024-01-07T04:55:04;16.27;;;10.05;;
36253;SDS011;22291;52.250;21.228;2024-01-07T04:57:31;23.50;;;12.10;;
36253;SDS011;22291;52.250;21.228;2024-01-07T04:59:58;20.20;;;11.45;;
36253;SDS011;22291;52.250;21.228;2024-01-07T05:02:24;16.75;;;10.18;;
36253;SDS011;22291;52.250;21.228;2024-01-07T05:04:51;20.55;;;10.25;;
36253;SDS011;22291;52.250;21.228;2024-01-07T05:07:18;20.50;;;10.82;;
36253;SDS011;22291;52.250;21.228;2024-01-07T05:09:44;22.00;;;10.45;;
36253;SDS011;22291;52.250;21.228;2024-01-07T05:12:11;20.27;;;11.18;;
36253;SDS011;22291;52.250;21.228;2024-01-07T05:14:38;19.42;;;11.95;;
36253;SDS011;22291;52.250;21.228;2024-01-07T05:17:04;21.27;;;11.33;;
36253;SDS011;22291;52.250;21.228;2024-01-07T05:19:31;19.00;;;11.97;;
36253;SDS011;22291;52.250;21.228;2024-01-07T05:21:58;18.25;;;11.40;;
36253;SDS011;22291;52.250;21.228;2024-01-07T05:24:24;18.00;;;10.95;;
36253;SDS011;22291;52.250;21.228;2024-01-07T05:26:51;19.70;;;11.55;;
36253;SDS011;22291;52.250;21.228;2024-01-07T05:29:18;18.12;;;11.25;;
36253;SDS011;22291;52.250;21.228;2024-01-07T05:31:44;22.32;;;11.48;;
36253;SDS011;22291;52.250;21.228;2024-01-07T05:34:11;18.62;;;10.95;;
36253;SDS011;22291;52.250;21.228;2024-01-07T05:36:37;19.10;;;10.72;;
36253;SDS011;22291;52.250;21.228;2024-01-07T05:39:04;15.45;;;10.08;;
36253;SDS011;22291;52.250;21.228;2024-01-07T05:41:32;19.05;;;11.93;;
36253;SDS011;22291;52.250;21.228;2024-01-07T05:43:59;17.95;;;11.22;;
36253;SDS011;22291;52.250;21.228;2024-01-07T05:46:25;17.37;;;10.38;;
36253;SDS011;22291;52.250;21.228;2024-01-07T05:48:52;18.05;;;10.63;;
36253;SDS011;22291;52.250;21.228;2024-01-07T05:51:19;16.17;;;10.70;;
36253;SDS011;22291;52.250;21.228;2024-01-07T05:53:46;17.30;;;10.48;;
36253;SDS011;22291;52.250;21.228;2024-01-07T05:56:12;19.73;;;10.45;;
36253;SDS011;22291;52.250;21.228;2024-01-07T05:58:39;19.23;;;11.60;;
36253;SDS011;22291;52.250;21.228;2024-01-07T06:01:06;20.50;;;11.03;;
36253;SDS011;22291;52.250;21.228;2024-01-07T06:03:34;21.50;;;11.18;;
36253;SDS011;22291;52.250;21.228;2024-01-07T06:06:00;17.37;;;10.70;;
36253;SDS011;22291;52.250;21.228;2024-01-07T06:08:27;17.25;;;10.55;;
36253;SDS011;22291;52.250;21.228;2024-01-07T06:10:54;20.90;;;11.55;;
36253;SDS011;22291;52.250;21.228;2024-01-07T06:13:20;17.92;;;10.93;;
36253;SDS011;22291;52.250;21.228;2024-01-07T06:15:47;18.10;;;11.55;;
36253;SDS011;22291;52.250;21.228;2024-01-07T06:18:14;20.95;;;11.55;;
36253;SDS011;22291;52.250;21.228;2024-01-07T06:20:40;20.92;;;11.53;;
36253;SDS011;22291;52.250;21.228;2024-01-07T06:23:07;18.57;;;11.03;;
36253;SDS011;22291;52.250;21.228;2024-01-07T06:25:34;20.02;;;11.40;;
36253;SDS011;22291;52.250;21.228;2024-01-07T06:28:00;19.82;;;10.65;;
36253;SDS011;22291;52.250;21.228;2024-01-07T06:30:27;18.82;;;10.48;;
36253;SDS011;22291;52.250;21.228;2024-01-07T06:32:54;18.02;;;10.38;;
36253;SDS011;22291;52.250;21.228;2024-01-07T06:35:21;20.72;;;10.32;;
36253;SDS011;22291;52.250;21.228;2024-01-07T06:37:48;17.20;;;10.15;;
36253;SDS011;22291;52.250;21.228;2024-01-07T06:40:15;19.62;;;11.05;;
36253;SDS011;22291;52.250;21.228;2024-01-07T06:42:42;21.42;;;11.90;;
36253;SDS011;22291;52.250;21.228;2024-01-07T06:45:10;22.00;;;11.75;;
36253;SDS011;22291;52.250;21.228;2024-01-07T06:47:37;17.80;;;10.70;;
36253;SDS011;22291;52.250;21.228;2024-01-07T06:50:03;20.02;;;10.50;;
36253;SDS011;22291;52.250;21.228;2024-01-07T06:52:31;19.77;;;10.35;;
36253;SDS011;22291;52.250;21.228;2024-01-07T06:54:57;17.50;;;10.48;;
36253;SDS011;22291;52.250;21.228;2024-01-07T06:57:24;20.25;;;12.00;;
36253;SDS011;22291;52.250;21.228;2024-01-07T06:59:50;16.75;;;10.35;;
36253;SDS011;22291;52.250;21.228;2024-01-07T07:02:17;15.50;;;9.60;;
36253;SDS011;22291;52.250;21.228;2024-01-07T07:04:43;19.75;;;11.88;;
36253;SDS011;22291;52.250;21.228;2024-01-07T07:07:10;17.50;;;10.23;;
36253;SDS011;22291;52.250;21.228;2024-01-07T07:09:37;19.20;;;10.78;;
36253;SDS011;22291;52.250;21.228;2024-01-07T07:12:03;17.95;;;11.00;;
36253;SDS011;22291;52.250;21.228;2024-01-07T07:14:31;20.30;;;11.08;;
36253;SDS011;22291;52.250;21.228;2024-01-07T07:16:58;19.52;;;10.60;;
36253;SDS011;22291;52.250;21.228;2024-01-07T07:19:24;16.40;;;10.13;;
36253;SDS011;22291;52.250;21.228;2024-01-07T07:21:51;19.05;;;10.48;;
36253;SDS011;22291;52.250;21.228;2024-01-07T07:24:17;19.05;;;10.20;;
36253;SDS011;22291;52.250;21.228;2024-01-07T07:26:43;20.70;;;11.08;;
36253;SDS011;22291;52.250;21.228;2024-01-07T07:29:10;16.23;;;10.08;;
36253;SDS011;22291;52.250;21.228;2024-01-07T07:31:37;18.42;;;9.68;;
36253;SDS011;22291;52.250;21.228;2024-01-07T07:34:04;15.53;;;10.98;;
36253;SDS011;22291;52.250;21.228;2024-01-07T07:36:31;19.32;;;11.15;;
36253;SDS011;22291;52.250;21.228;2024-01-07T07:38:58;17.82;;;10.00;;
36253;SDS011;22291;52.250;21.228;2024-01-07T07:41:25;19.27;;;10.08;;
36253;SDS011;22291;52.250;21.228;2024-01-07T07:43:52;16.35;;;11.10;;
36253;SDS011;22291;52.250;21.228;2024-01-07T07:46:20;21.57;;;11.75;;
36253;SDS011;22291;52.250;21.228;2024-01-07T07:48:46;19.75;;;11.12;;
36253;SDS011;22291;52.250;21.228;2024-01-07T07:51:13;19.55;;;11.18;;
36253;SDS011;22291;52.250;21.228;2024-01-07T07:53:40;22.98;;;12.20;;
36253;SDS011;22291;52.250;21.228;2024-01-07T07:56:07;18.70;;;11.43;;
36253;SDS011;22291;52.250;21.228;2024-01-07T07:58:34;22.25;;;12.05;;
36253;SDS011;22291;52.250;21.228;2024-01-07T08:01:00;19.85;;;11.60;;
36253;SDS011;22291;52.250;21.228;2024-01-07T08:03:27;19.12;;;10.93;;
36253;SDS011;22291;52.250;21.228;2024-01-07T08:05:54;21.33;;;10.88;;
36253;SDS011;22291;52.250;21.228;2024-01-07T08:08:21;17.15;;;10.93;;
36253;SDS011;22291;52.250;21.228;2024-01-07T08:10:47;21.07;;;12.05;;
36253;SDS011;22291;52.250;21.228;2024-01-07T08:13:13;18.35;;;10.85;;
36253;SDS011;22291;52.250;21.228;2024-01-07T08:15:40;17.95;;;10.50;;
36253;SDS011;22291;52.250;21.228;2024-01-07T08:18:06;18.30;;;11.08;;
36253;SDS011;22291;52.250;21.228;2024-01-07T08:20:33;25.25;;;13.45;;
36253;SDS011;22291;52.250;21.228;2024-01-07T08:23:00;23.77;;;13.93;;
36253;SDS011;22291;52.250;21.228;2024-01-07T08:25:26;22.02;;;12.03;;
36253;SDS011;22291;52.250;21.228;2024-01-07T08:27:53;20.08;;;10.93;;
36253;SDS011;22291;52.250;21.228;2024-01-07T08:30:20;21.60;;;13.30;;
36253;SDS011;22291;52.250;21.228;2024-01-07T08:32:46;18.30;;;11.65;;
36253;SDS011;22291;52.250;21.228;2024-01-07T08:35:13;23.45;;;11.50;;
36253;SDS011;22291;52.250;21.228;2024-01-07T08:37:39;16.93;;;10.63;;
36253;SDS011;22291;52.250;21.228;2024-01-07T08:40:06;20.50;;;11.73;;
36253;SDS011;22291;52.250;21.228;2024-01-07T08:42:35;25.55;;;12.30;;
36253;SDS011;22291;52.250;21.228;2024-01-07T08:45:03;22.00;;;11.40;;
36253;SDS011;22291;52.250;21.228;2024-01-07T08:47:30;19.40;;;11.33;;
36253;SDS011;22291;52.250;21.228;2024-01-07T08:49:57;22.17;;;12.28;;
36253;SDS011;22291;52.250;21.228;2024-01-07T08:52:24;18.95;;;10.85;;
36253;SDS011;22291;52.250;21.228;2024-01-07T08:54:51;19.37;;;11.15;;
36253;SDS011;22291;52.250;21.228;2024-01-07T08:57:17;23.67;;;13.05;;
36253;SDS011;22291;52.250;21.228;2024-01-07T08:59:44;17.32;;;10.23;;
36253;SDS011;22291;52.250;21.228;2024-01-07T09:02:10;18.17;;;10.93;;
36253;SDS011;22291;52.250;21.228;2024-01-07T09:04:37;20.92;;;10.95;;
36253;SDS011;22291;52.250;21.228;2024-01-07T09:07:04;16.80;;;10.70;;
36253;SDS011;22291;52.250;21.228;2024-01-07T09:09:30;20.43;;;10.53;;
36253;SDS011;22291;52.250;21.228;2024-01-07T09:11:57;17.20;;;10.80;;
36253;SDS011;22291;52.250;21.228;2024-01-07T09:14:25;18.48;;;9.93;;
36253;SDS011;22291;52.250;21.228;2024-01-07T09:16:52;17.17;;;10.68;;
36253;SDS011;22291;52.250;21.228;2024-01-07T09:19:19;21.85;;;11.78;;
36253;SDS011;22291;52.250;21.228;2024-01-07T09:21:45;19.85;;;11.40;;
36253;SDS011;22291;52.250;21.228;2024-01-07T09:24:12;18.85;;;10.55;;
36253;SDS011;22291;52.250;21.228;2024-01-07T09:26:38;17.77;;;11.55;;
36253;SDS011;22291;52.250;21.228;2024-01-07T09:29:05;17.70;;;10.38;;
36253;SDS011;22291;52.250;21.228;2024-01-07T09:31:32;21.37;;;10.82;;
36253;SDS011;22291;52.250;21.228;2024-01-07T09:33:58;21.93;;;10.68;;
36253;SDS011;22291;52.250;21.228;2024-01-07T09:36:25;19.10;;;9.93;;
36253;SDS011;22291;52.250;21.228;2024-01-07T09:38:52;13.70;;;8.15;;
36253;SDS011;22291;52.250;21.228;2024-01-07T09:41:19;13.30;;;8.23;;
36253;SDS011;22291;52.250;21.228;2024-01-07T09:43:45;15.58;;;8.23;;
36253;SDS011;22291;52.250;21.228;2024-01-07T09:46:13;10.90;;;7.47;;
36253;SDS011;22291;52.250;21.228;2024-01-07T09:48:40;11.73;;;6.85;;
36253;SDS011;22291;52.250;21.228;2024-01-07T09:51:08;10.38;;;7.17;;
36253;SDS011;22291;52.250;21.228;2024-01-07T09:53:38;12.20;;;8.05;;
36253;SDS011;22291;52.250;21.228;2024-01-07T09:56:12;11.12;;;7.10;;
36253;SDS011;22291;52.250;21.228;2024-01-07T09:58:55;15.05;;;9.20;;
36253;SDS011;22291;52.250;21.228;2024-01-07T10:01:21;13.43;;;8.58;;
36253;SDS011;22291;52.250;21.228;2024-01-07T10:03:48;13.65;;;8.05;;
36253;SDS011;22291;52.250;21.228;2024-01-07T10:06:17;11.03;;;7.83;;
36253;SDS011;22291;52.250;21.228;2024-01-07T10:08:46;12.55;;;7.83;;
36253;SDS011;22291;52.250;21.228;2024-01-07T10:11:13;14.60;;;8.65;;
36253;SDS011;22291;52.250;21.228;2024-01-07T10:13:41;13.78;;;8.28;;
36253;SDS011;22291;52.250;21.228;2024-01-07T10:16:07;13.28;;;7.75;;
36253;SDS011;22291;52.250;21.228;2024-01-07T10:18:34;12.15;;;7.70;;
36253;SDS011;22291;52.250;21.228;2024-01-07T10:21:02;11.48;;;7.70;;
36253;SDS011;22291;52.250;21.228;2024-01-07T10:23:29;13.98;;;8.98;;
36253;SDS011;22291;52.250;21.228;2024-01-07T10:25:55;16.82;;;8.15;;
36253;SDS011;22291;52.250;21.228;2024-01-07T10:28:23;13.78;;;8.60;;
36253;SDS011;22291;52.250;21.228;2024-01-07T10:30:50;14.80;;;9.03;;
36253;SDS011;22291;52.250;21.228;2024-01-07T10:33:18;15.68;;;8.65;;
36253;SDS011;22291;52.250;21.228;2024-01-07T10:35:51;19.02;;;10.40;;
36253;SDS011;22291;52.250;21.228;2024-01-07T10:38:21;17.87;;;10.50;;
36253;SDS011;22291;52.250;21.228;2024-01-07T10:40:47;16.85;;;10.35;;
36253;SDS011;22291;52.250;21.228;2024-01-07T10:43:16;14.78;;;9.05;;
36253;SDS011;22291;52.250;21.228;2024-01-07T10:45:44;13.65;;;8.80;;
36253;SDS011;22291;52.250;21.228;2024-01-07T10:48:17;14.70;;;8.48;;
36253;SDS011;22291;52.250;21.228;2024-01-07T10:50:47;14.98;;;8.80;;
36253;SDS011;22291;52.250;21.228;2024-01-07T10:53:20;12.10;;;7.90;;
36253;SDS011;22291;52.250;21.228;2024-01-07T10:55:52;13.95;;;7.97;;
36253;SDS011;22291;52.250;21.228;2024-01-07T10:58:20;12.40;;;7.62;;
36253;SDS011;22291;52.250;21.228;2024-01-07T11:00:48;10.60;;;7.05;;
36253;SDS011;22291;52.250;21.228;2024-01-07T11:03:20;12.23;;;7.08;;
36253;SDS011;22291;52.250;21.228;2024-01-07T11:06:00;9.48;;;7.40;;
36253;SDS011;22291;52.250;21.228;2024-01-07T11:08:56;12.95;;;7.75;;
36253;SDS011;22291;52.250;21.228;2024-01-07T11:11:18;12.85;;;7.60;;
36253;SDS011;22291;52.250;21.228;2024-01-07T11:13:51;18.45;;;9.30;;
36253;SDS011;22291;52.250;21.228;2024-01-07T11:19:07;14.23;;;8.43;;
36253;SDS011;22291;52.250;21.228;2024-01-07T11:21:34;15.28;;;9.23;;
36253;SDS011;22291;52.250;21.228;2024-01-07T11:24:01;13.48;;;8.48;;
36253;SDS011;22291;52.250;21.228;2024-01-07T11:26:28;18.60;;;9.28;;
36253;SDS011;22291;52.250;21.228;2024-01-07T11:28:57;15.83;;;9.18;;
36253;SDS011;22291;52.250;21.228;2024-01-07T11:34:07;17.25;;;10.32;;
36253;SDS011;22291;52.250;21.228;2024-01-07T11:36:38;15.68;;;10.00;;
36253;SDS011;22291;52.250;21.228;2024-01-07T11:39:03;14.35;;;9.03;;
36253;SDS011;22291;52.250;21.228;2024-01-07T11:41:34;17.45;;;10.08;;
36253;SDS011;22291;52.250;21.228;2024-01-07T11:44:02;18.42;;;9.45;;
36253;SDS011;22291;52.250;21.228;2024-01-07T11:46:29;18.73;;;10.03;;
36253;SDS011;22291;52.250;21.228;2024-01-07T11:48:57;45.43;;;26.10;;
36253;SDS011;22291;52.250;21.228;2024-01-07T11:51:31;75.08;;;41.50;;
36253;SDS011;22291;52.250;21.228;2024-01-07T11:53:58;32.40;;;18.67;;
36253;SDS011;22291;52.250;21.228;2024-01-07T11:56:25;15.88;;;10.35;;
36253;SDS011;22291;52.250;21.228;2024-01-07T11:58:51;14.38;;;9.78;;
36253;SDS011;22291;52.250;21.228;2024-01-07T12:01:18;15.20;;;9.30;;
36253;SDS011;22291;52.250;21.228;2024-01-07T12:03:45;14.80;;;9.20;;
36253;SDS011;22291;52.250;21.228;2024-01-07T12:06:12;20.50;;;11.08;;
36253;SDS011;22291;52.250;21.228;2024-01-07T12:08:43;17.65;;;10.72;;
36253;SDS011;22291;52.250;21.228;2024-01-07T12:13:40;17.98;;;9.38;;
36253;SDS011;22291;52.250;21.228;2024-01-07T12:16:07;11.25;;;8.38;;
36253;SDS011;22291;52.250;21.228;2024-01-07T12:18:38;14.07;;;8.40;;
36253;SDS011;22291;52.250;21.228;2024-01-07T12:21:05;14.73;;;9.05;;
36253;SDS011;22291;52.250;21.228;2024-01-07T12:23:35;14.68;;;8.90;;
36253;SDS011;22291;52.250;21.228;2024-01-07T12:26:08;14.98;;;10.10;;
36253;SDS011;22291;52.250;21.228;2024-01-07T12:28:38;16.12;;;10.72;;
36253;SDS011;22291;52.250;21.228;2024-01-07T12:31:05;16.07;;;10.18;;
36253;SDS011;22291;52.250;21.228;2024-01-07T12:33:32;14.55;;;9.28;;
36253;SDS011;22291;52.250;21.228;2024-01-07T12:35:59;13.72;;;9.13;;
36253;SDS011;22291;52.250;21.228;2024-01-07T12:38:26;18.90;;;10.18;;
36253;SDS011;22291;52.250;21.228;2024-01-07T12:40:53;15.03;;;9.03;;
36253;SDS011;22291;52.250;21.228;2024-01-07T12:43:20;13.13;;;8.33;;
36253;SDS011;22291;52.250;21.228;2024-01-07T12:45:47;13.90;;;9.50;;
36253;SDS011;22291;52.250;21.228;2024-01-07T12:48:14;12.90;;;8.73;;
36253;SDS011;22291;52.250;21.228;2024-01-07T12:50:41;22.27;;;12.70;;
36253;SDS011;22291;52.250;21.228;2024-01-07T12:53:07;23.62;;;12.53;;
36253;SDS011;22291;52.250;21.228;2024-01-07T12:55:35;15.88;;;9.38;;
36253;SDS011;22291;52.250;21.228;2024-01-07T12:58:01;15.20;;;8.53;;
36253;SDS011;22291;52.250;21.228;2024-01-07T13:00:28;15.45;;;9.08;;
36253;SDS011;22291;52.250;21.228;2024-01-07T13:02:55;17.82;;;9.70;;
36253;SDS011;22291;52.250;21.228;2024-01-07T13:05:22;17.42;;;9.10;;
36253;SDS011;22291;52.250;21.228;2024-01-07T13:07:49;15.60;;;9.28;;
36253;SDS011;22291;52.250;21.228;2024-01-07T13:10:15;16.10;;;8.83;;
36253;SDS011;22291;52.250;21.228;2024-01-07T13:12:42;14.78;;;9.50;;
36253;SDS011;22291;52.250;21.228;2024-01-07T13:15:09;12.75;;;8.48;;
36253;SDS011;22291;52.250;21.228;2024-01-07T13:17:36;16.23;;;8.40;;
36253;SDS011;22291;52.250;21.228;2024-01-07T13:20:03;15.50;;;8.18;;
36253;SDS011;22291;52.250;21.228;2024-01-07T13:22:32;13.78;;;8.20;;
36253;SDS011;22291;52.250;21.228;2024-01-07T13:24:59;15.93;;;9.38;;
36253;SDS011;22291;52.250;21.228;2024-01-07T13:27:25;14.85;;;8.90;;
36253;SDS011;22291;52.250;21.228;2024-01-07T13:29:52;17.17;;;10.18;;
36253;SDS011;22291;52.250;21.228;2024-01-07T13:32:18;15.30;;;9.03;;
36253;SDS011;22291;52.250;21.228;2024-01-07T13:34:45;15.93;;;8.90;;
36253;SDS011;22291;52.250;21.228;2024-01-07T13:37:12;17.98;;;10.28;;
36253;SDS011;22291;52.250;21.228;2024-01-07T13:39:39;14.65;;;9.38;;
36253;SDS011;22291;52.250;21.228;2024-01-07T13:42:06;13.75;;;9.68;;
36253;SDS011;22291;52.250;21.228;2024-01-07T13:44:32;15.85;;;8.95;;
36253;SDS011;22291;52.250;21.228;2024-01-07T13:47:00;33.15;;;16.10;;
36253;SDS011;22291;52.250;21.228;2024-01-07T13:49:30;22.50;;;12.45;;
36253;SDS011;22291;52.250;21.228;2024-01-07T13:51:58;19.82;;;11.08;;
36253;SDS011;22291;52.250;21.228;2024-01-07T13:54:24;16.62;;;10.18;;
36253;SDS011;22291;52.250;21.228;2024-01-07T13:56:51;17.25;;;9.95;;
36253;SDS011;22291;52.250;21.228;2024-01-07T13:59:19;15.37;;;9.73;;
36253;SDS011;22291;52.250;21.228;2024-01-07T14:01:45;18.17;;;10.18;;
36253;SDS011;22291;52.250;21.228;2024-01-07T14:04:12;17.27;;;10.05;;
36253;SDS011;22291;52.250;21.228;2024-01-07T14:06:38;21.12;;;11.25;;
36253;SDS011;22291;52.250;21.228;2024-01-07T14:09:05;27.62;;;15.00;;
36253;SDS011;22291;52.250;21.228;2024-01-07T14:11:34;21.77;;;12.70;;
36253;SDS011;22291;52.250;21.228;2024-01-07T14:14:01;23.62;;;12.20;;
36253;SDS011;22291;52.250;21.228;2024-01-07T14:16:27;23.77;;;12.15;;
36253;SDS011;22291;52.250;21.228;2024-01-07T14:18:54;18.85;;;11.65;;